Flight Track Log - Related Links

Times and Time Zones

All times are in EDT time to prevent confusion due to time zone crossing. See the EJA929 flight status page for this flight to view local times or setup timezone preferences in your user account.

Time Position Orientation Groundspeed Altitude Reporting Facility
EDT Latitude Longitude Course Direction KTS MPH feet Rate Location/Type
Wed 07:19:23 PM 38.8833 -77.4500 213° Southwest 208 239 3,200  Level Potomac TRACON
Wed 07:21:42 PM 38.7639 -77.5511 213° Southwest 229 264 10,200 2,580 Climbing Washington Center
Wed 07:22:43 PM 38.6825 -77.5622 186° South 265 305 11,800 1,525 Climbing Washington Center
Wed 07:23:44 PM 38.6042 -77.6319 215° Southwest 298 343 13,300 1,500 Climbing Washington Center
Wed 07:24:43 PM 38.5236 -77.7067 216° Southwest 340 391 14,800 1,650 Climbing Washington Center
Wed 07:25:44 PM 38.4431 -77.7867 218° Southwest 361 415 16,600 1,881 Climbing Washington Center
Wed 07:26:41 PM 38.3625 -77.8636 217° Southwest 367 422 18,500 1,866 Climbing Washington Center
Wed 07:27:43 PM 38.2817 -77.9406 217° Southwest 375 432 20,300 1,805 Climbing Washington Center
Wed 07:28:44 PM 38.2008 -78.0200 218° Southwest 375 432 22,200 1,866 Climbing Washington Center
Wed 07:29:42 PM 38.1158 -78.0989 216° Southwest 375 432 24,000 1,831 Climbing Washington Center
Wed 07:30:42 PM 38.0308 -78.1778 216° Southwest 375 432 25,800 1,700 Climbing Washington Center
Wed 07:31:42 PM 37.9497 -78.2567 217° Southwest 375 432 27,400 1,488 Climbing Washington Center
Wed 07:32:43 PM 37.8667 -78.3328 216° Southwest 385 443 28,800 1,426 Climbing Washington Center
Wed 07:33:44 PM 37.7772 -78.4161 216° Southwest 398 458 30,300 1,438 Climbing Washington Center
Wed 07:34:44 PM 37.6811 -78.5019 215° Southwest 409 471 31,700 1,487 Climbing Washington Center
Wed 07:35:41 PM 37.5853 -78.5897 216° Southwest 421 484 33,200 1,678 Climbing Washington Center
Wed 07:36:42 PM 37.4761 -78.6928 217° Southwest 441 507 35,000 1,623 Climbing Washington Center
Wed 07:37:43 PM 37.3758 -78.7828 216° Southwest 446 513 36,500 1,426 Climbing Washington Center
Wed 07:38:44 PM 37.2731 -78.8753 216° Southwest 451 519 37,900 1,438 Climbing Washington Center
Wed 07:39:44 PM 37.1703 -78.9697 216° Southwest 451 519 39,400 1,077 Climbing Washington Center
Wed 07:40:41 PM 37.0675 -79.0617 216° Southwest 456 525 40,000 305 Climbing Washington Center
Wed 07:41:42 PM 36.9711 -79.1483 216° Southwest 473 544 40,000  Level Washington Center
Wed 07:42:44 PM 36.8617 -79.2497 217° Southwest 487 560 40,000  Level Washington Center
Wed 07:45:08 PM 36.5769 -79.4994 215° Southwest 487 560 40,000  Level Atlanta Center
Wed 07:46:08 PM 36.4639 -79.6011 216° Southwest 492 566 40,000  Level Atlanta Center
Wed 07:47:08 PM 36.3569 -79.6975 216° Southwest 497 572 40,000  Level Atlanta Center
Wed 07:48:08 PM 36.2558 -79.7878 216° Southwest 502 578 40,000  Level Atlanta Center
Wed 07:49:08 PM 36.1422 -79.8839 214° Southwest 502 578 40,000  Level Atlanta Center
Wed 07:50:08 PM 36.0353 -79.9919 219° Southwest 502 578 40,000  Level Atlanta Center
Wed 07:51:08 PM 35.9564 -80.1267 234° Southwest 491 565 40,000  Level Atlanta Center
Wed 07:52:08 PM 35.8717 -80.2872 237° Southwest 503 579 40,000  Level Atlanta Center
Wed 07:53:08 PM 35.7922 -80.4264 235° Southwest 508 585 40,000  Level Atlanta Center
Wed 07:54:08 PM 35.7150 -80.5681 236° Southwest 508 585 40,000  Level Atlanta Center
Wed 07:55:08 PM 35.6356 -80.7094 235° Southwest 508 585 40,000  Level Atlanta Center
Wed 07:56:08 PM 35.5558 -80.8506 235° Southwest 503 579 40,000  Level Atlanta Center
Wed 07:57:08 PM 35.4839 -80.9756 235° Southwest 503 579 40,000  Level Atlanta Center
Wed 07:58:08 PM 35.4039 -81.1161 235° Southwest 503 579 40,000  Level Atlanta Center
Wed 07:59:08 PM 35.3258 -81.2564 236° Southwest 503 579 40,000  Level Atlanta Center
Wed 08:00:08 PM 35.2417 -81.4092 236° Southwest 497 572 40,000  Level Atlanta Center
Wed 08:01:08 PM 35.1650 -81.5439 235° Southwest 491 565 40,000 450 Level Atlanta Center
Wed 08:02:08 PM 35.0883 -81.6731 234° Southwest 491 565 40,900 950 Climbing Atlanta Center
Wed 08:03:08 PM 35.0136 -81.8044 235° Southwest 484 557 41,900 1,000 Climbing Atlanta Center
Wed 08:04:08 PM 34.9408 -81.9358 236° Southwest 478 550 42,900 550 Climbing Atlanta Center
Wed 08:05:08 PM 34.8736 -82.0436 233° Southwest 466 536 43,000 50 Climbing Atlanta Center
Wed 08:06:08 PM 34.8006 -82.1694 235° Southwest 461 531 43,000  Level Atlanta Center
Wed 08:07:08 PM 34.7253 -82.3000 235° Southwest 461 531 43,000  Level Atlanta Center
Wed 08:08:08 PM 34.6497 -82.4303 235° Southwest 466 536 43,000  Level Atlanta Center
Wed 08:09:08 PM 34.5700 -82.5606 233° Southwest 472 543 43,000  Level Atlanta Center
Wed 08:10:08 PM 34.4819 -82.7058 234° Southwest 484 557 43,000  Level Atlanta Center
Wed 08:11:08 PM 34.4042 -82.8353 234° Southwest 484 557 43,000  Level Atlanta Center
Wed 08:12:08 PM 34.3281 -82.9672 235° Southwest 484 557 43,000  Level Atlanta Center
Wed 08:13:08 PM 34.2478 -83.0989 234° Southwest 484 557 43,000  Level Atlanta Center
Wed 08:14:08 PM 34.1672 -83.2303 233° Southwest 484 557 43,000  Level Atlanta Center
Wed 08:15:08 PM 34.0908 -83.3617 235° Southwest 484 557 43,000  Level Atlanta Center
Wed 08:16:08 PM 34.0206 -83.4747 233° Southwest 484 557 43,000  Level Atlanta Center
Wed 08:17:08 PM 33.9397 -83.6081 234° Southwest 484 557 43,000  Level Atlanta Center
Wed 08:18:08 PM 33.8586 -83.7386 233° Southwest 484 557 43,000  Level Atlanta Center
Wed 08:19:08 PM 33.7817 -83.8664 234° Southwest 484 557 43,000  Level Atlanta Center
Wed 08:20:08 PM 33.7003 -83.9964 233° Southwest 484 557 43,000  Level Atlanta Center
Wed 08:21:08 PM 33.6106 -84.1411 233° Southwest 484 557 43,000  Level Atlanta Center
Wed 08:22:08 PM 33.5269 -84.2706 232° Southwest 489 563 43,000  Level Atlanta Center
Wed 08:23:08 PM 33.4472 -84.4022 234° Southwest 495 570 43,000  Level Atlanta Center
Wed 08:24:08 PM 33.3675 -84.5339 234° Southwest 500 575 43,000  Level Atlanta Center
Wed 08:25:08 PM 33.2856 -84.6625 233° Southwest 500 575 43,000  Level Atlanta Center
Wed 08:26:08 PM 33.2033 -84.7936 233° Southwest 495 570 43,000  Level Atlanta Center
Wed 08:27:08 PM 33.1294 -84.9094 233° Southwest 495 570 43,000  Level Atlanta Center
Wed 08:28:08 PM 33.0594 -85.0475 239° Southwest 495 570 43,000  Level Atlanta Center
Wed 08:29:08 PM 33.0250 -85.1958 255° West 477 549 43,000  Level Atlanta Center
Wed 08:30:08 PM 32.9919 -85.3489 256° West 472 543 43,000  Level Atlanta Center
Wed 08:31:08 PM 32.9611 -85.4994 256° West 478 550 43,000  Level Atlanta Center
Wed 08:32:08 PM 32.9300 -85.6575 257° West 478 550 43,000  Level Atlanta Center
Wed 08:33:08 PM 32.8986 -85.8103 256° West 478 550 43,000  Level Atlanta Center
Wed 08:34:08 PM 32.8650 -85.9603 255° West 478 550 43,000  Level Atlanta Center
Wed 08:35:08 PM 32.8311 -86.1153 255° West 478 550 43,000  Level Atlanta Center
Wed 08:36:08 PM 32.7972 -86.2753 256° West 472 543 43,000  Level Atlanta Center
Wed 08:37:08 PM 32.7653 -86.4225 256° West 465 535 43,000  Level Atlanta Center
Wed 08:38:08 PM 32.7353 -86.5600 255° West 448 516 43,000  Level Atlanta Center
Wed 08:39:08 PM 32.7031 -86.6975 254° West 443 510 43,000  Level Atlanta Center
Wed 08:40:08 PM 32.6728 -86.8394 256° West 443 510 43,000  Level Atlanta Center
Wed 08:42:08 PM 32.6122 -87.1114 255° West 437 503 43,000  Level Atlanta Center
Wed 08:43:08 PM 32.5772 -87.2556 254° West 432 497 43,000  Level Atlanta Center
Wed 08:44:08 PM 32.5464 -87.3950 255° West 437 503 43,000  Level Atlanta Center
Wed 08:45:44 PM 32.4994 -87.6083 255° West 453 521 43,000  Level Memphis Center
Wed 08:46:44 PM 32.4611 -87.7672 254° West 453 521 43,000  Level Memphis Center
Wed 08:47:44 PM 32.4286 -87.9083 255° West 453 521 43,000  Level Memphis Center
Wed 08:48:44 PM 32.3978 -88.0469 255° West 453 521 43,000  Level Memphis Center
Wed 08:49:44 PM 32.3650 -88.1881 255° West 453 521 43,000  Level Memphis Center
Wed 08:50:44 PM 32.3297 -88.3292 254° West 448 516 43,000  Level Memphis Center
Wed 08:51:44 PM 32.3089 -88.4719 260° West 448 516 43,000  Level Memphis Center
Wed 08:52:44 PM 32.3111 -88.6147 271° West 442 509 43,000  Level Memphis Center
Wed 08:53:44 PM 32.3172 -88.7594 273° West 442 509 43,000  Level Memphis Center
Wed 08:54:44 PM 32.3231 -88.9044 273° West 442 509 43,000  Level Memphis Center
Wed 08:55:44 PM 32.3289 -89.0519 273° West 442 509 43,000  Level Memphis Center
Wed 08:56:44 PM 32.3325 -89.1994 272° West 442 509 43,000  Level Memphis Center
Wed 08:57:44 PM 32.3358 -89.3444 272° West 442 509 43,000  Level Memphis Center
Wed 08:58:44 PM 32.3411 -89.4919 272° West 442 509 43,000  Level Memphis Center
Wed 08:59:44 PM 32.3442 -89.6344 271° West 442 509 43,000  Level Memphis Center
Wed 09:00:44 PM 32.3492 -89.7794 272° West 442 509 43,000  Level Memphis Center
Wed 09:01:44 PM 32.3517 -89.9244 271° West 442 509 43,000  Level Memphis Center
Wed 09:02:44 PM 32.3564 -90.0697 272° West 442 509 43,000  Level Memphis Center
Wed 09:03:44 PM 32.3586 -90.2147 271° West 442 509 43,000  Level Memphis Center
Wed 09:04:44 PM 32.3631 -90.3597 272° West 442 509 43,000  Level Memphis Center
Wed 09:07:12 PM 32.3736 -90.7019 272° West 445 512 43,000  Level Houston Center
Wed 09:08:13 PM 32.3764 -90.8678 271° West 448 516 43,000  Level Houston Center
Wed 09:09:15 PM 32.3797 -91.0142 272° West 449 517 43,000  Level Houston Center
Wed 09:10:17 PM 32.3828 -91.1606 271° West 448 516 43,000  Level Houston Center
Wed 09:10:57 PM 32.3842 -91.2564 271° West 458 527 43,000  Level Fort Worth Center
Wed 09:11:57 PM 32.3853 -91.4064 271° West 458 527 43,000  Level Fort Worth Center
Wed 09:12:57 PM 32.3878 -91.5514 271° West 458 527 43,000  Level Fort Worth Center
Wed 09:13:57 PM 32.3903 -91.6964 271° West 458 527 43,000  Level Fort Worth Center
Wed 09:14:57 PM 32.3928 -91.8439 271° West 453 521 43,000  Level Fort Worth Center
Wed 09:15:57 PM 32.3950 -91.9911 271° West 453 521 43,000  Level Fort Worth Center
Wed 09:16:57 PM 32.3958 -92.1533 270° West 459 528 43,000  Level Fort Worth Center
Wed 09:17:57 PM 32.3978 -92.3033 271° West 459 528 43,000  Level Fort Worth Center
Wed 09:18:57 PM 32.3975 -92.4511 270° West 459 528 43,000  Level Fort Worth Center
Wed 09:19:31 PM 32.3964 -92.5078 269° West 450 518 43,000  Level Houston Center
Wed 09:20:32 PM 32.3964 -92.6553 270° West 451 519 43,000  Level Houston Center
Wed 09:20:57 PM 32.4006 -92.7486 273° West 462 532 43,000  Level Fort Worth Center
Wed 09:21:57 PM 32.3994 -92.8961 270° West 457 526 43,000  Level Fort Worth Center
Wed 09:22:57 PM 32.4025 -93.0411 271° West 457 526 43,000  Level Fort Worth Center
Wed 09:23:57 PM 32.4028 -93.1692 270° West 452 520 43,000  Level Fort Worth Center
Wed 09:24:57 PM 32.3992 -93.3144 268° West 446 513 43,000  Level Fort Worth Center
Wed 09:25:57 PM 32.4000 -93.4669 270° West 451 519 43,000  Level Fort Worth Center
Wed 09:26:57 PM 32.4006 -93.6242 270° West 451 519 43,000  Level Fort Worth Center
Wed 09:27:57 PM 32.4008 -93.7744 270° West 451 519 43,000  Level Fort Worth Center
Wed 09:28:57 PM 32.4050 -93.9242 272° West 456 525 43,000  Level Fort Worth Center
Wed 09:29:57 PM 32.4050 -94.0744 270° West 462 532 43,000  Level Fort Worth Center
Wed 09:30:57 PM 32.4067 -94.2144 271° West 452 520 43,000  Level Fort Worth Center
Wed 09:31:57 PM 32.4103 -94.3644 272° West 447 514 43,000  Level Fort Worth Center
Wed 09:32:57 PM 32.4117 -94.5122 271° West 447 514 43,000  Level Fort Worth Center
Wed 09:33:57 PM 32.4128 -94.6522 271° West 447 514 43,000 -950 Level Fort Worth Center
Wed 09:34:57 PM 32.4056 -94.8003 267° West 447 514 41,100 -2,500 Descending Fort Worth Center
Wed 09:35:57 PM 32.3856 -94.9458 261° West 447 514 38,000 -2,900 Descending Fort Worth Center
Wed 09:36:57 PM 32.3672 -95.0792 261° West 452 520 35,300 -2,850 Descending Fort Worth Center
Wed 09:37:57 PM 32.3467 -95.2247 261° West 452 520 32,300 -3,000 Descending Fort Worth Center
Wed 09:38:57 PM 32.3597 -95.3744 276° West 452 520 29,300 -3,050 Descending Fort Worth Center
Wed 09:39:57 PM 32.3933 -95.5189 285° West 452 520 26,200 -3,300 Descending Fort Worth Center
Wed 09:40:57 PM 32.4203 -95.6536 283° West 441 507 22,700 -3,300 Descending Fort Worth Center
Wed 09:41:57 PM 32.4492 -95.7886 284° West 435 501 19,600 -3,100 Descending Fort Worth Center
Wed 09:42:57 PM 32.4758 -95.9161 284° West 414 476 16,500 -3,000 Descending Fort Worth Center
Wed 09:43:57 PM 32.5044 -96.0536 284° West 400 460 13,600 -2,350 Descending Fort Worth Center
Wed 09:44:57 PM 32.5264 -96.1519 285° West 366 421 11,800 -1,700 Descending Fort Worth Center
Wed 09:45:57 PM 32.5483 -96.2600 284° West 322 371 10,200 -1,400 Descending Fort Worth Center
Wed 09:46:57 PM 32.5678 -96.3386 286° West 283 326 9,000 -1,050 Descending Fort Worth Center
Wed 09:47:57 PM 32.6122 -96.4194 303° West 270 311 8,100 -1,000 Descending Fort Worth Center
Wed 09:48:57 PM 32.6547 -96.4906 305° West 276 318 7,000 -600 Descending Fort Worth Center
Wed 09:49:57 PM 32.7136 -96.5617 315° West 281 323 6,900 -950 Descending Fort Worth Center
Wed 09:50:57 PM 32.7725 -96.6103 325° Northwest 286 329 5,100 -1,296 Descending Fort Worth Center
Wed 09:52:02 PM 32.8500 -96.6833 322° Northwest 286 329 4,200 -528 Descending Dallas / Fort Worth TRACON
Wed 09:53:02 PM 32.9167 -96.7333 328° Northwest 288 331 4,000 -600 Descending Dallas / Fort Worth TRACON
Wed 09:54:02 PM 32.9500 -96.8167 296° West 259 298 3,000 -800 Descending Dallas / Fort Worth TRACON
Wed 09:55:02 PM 32.9500 -96.8833 270° West 222 255 2,400 -700 Descending Dallas / Fort Worth TRACON
Wed 09:56:02 PM 32.9167 -96.9167 220° Southwest 144 166 1,600 -632 Descending Dallas / Fort Worth TRACON
Wed 09:56:56 PM 32.9000 -96.9000 140° Southeast 117 135 1,200 -400 Descending Dallas / Fort Worth TRACON
Wed 09:58:02 PM 32.8667 -96.8667 140° Southeast 115 132 800 -364 Descending Dallas / Fort Worth TRACON
Wed 10:00:00 PM 32.8471 -96.8518 173° South  Level Estimated

Login

Don't have an account? Register now (free) for customized features, flight alerts, and more!